This is the latest recevied weather packets stored in our database for station/object HB3YKO-13. If no packets are shown the sender has not sent any weather packets the latest 10 day(s).
| Time | Temp. | Humidity | Pressure | Rain* | Wind** | Luminosity | Snow |
|---|---|---|---|---|---|---|---|
| 1778244571 | -17.78° C | 100% | 0 hPa | 0 mm | - | - | - |
| 1778244271 | -17.78° C | 100% | 0 hPa | 0 mm | - | - | - |
| 1778243971 | -17.78° C | 100% | 0 hPa | 0 mm | - | - | - |
| 1778243671 | -17.78° C | 100% | 0 hPa | 0 mm | - | - | - |
| 1778243371 | -5° C | 46% | 0 hPa | 0 mm | - | - | - |
| 1778243071 | -5° C | 49% | 0 hPa | 0 mm | - | - | - |
| 1778242771 | -4.44° C | 44% | 0 hPa | 0 mm | - | - | - |
| 1778242471 | -4.44° C | 46% | 0 hPa | 0 mm | - | - | - |
| 1778242171 | -5° C | 47% | 0 hPa | 0 mm | - | - | - |
| 1778241871 | -5° C | 46% | 0 hPa | 0 mm | - | - | - |
| 1778241571 | -5.56° C | 48% | 0 hPa | 0 mm | - | - | - |
| 1778241271 | -6.11° C | 48% | 0 hPa | 0 mm | - | - | - |
| 1778240971 | -6.11° C | 49% | 0 hPa | 0 mm | - | - | - |
| 1778240671 | -5.56° C | 49% | 0 hPa | 0 mm | - | - | - |
| 1778240371 | -5.56° C | 49% | 0 hPa | 0 mm | - | - | - |
| 1778240071 | -5.56° C | 49% | 0 hPa | 0 mm | - | - | - |
| 1778239771 | -5.56° C | 49% | 0 hPa | 0 mm | - | - | - |
| 1778239471 | -6.11° C | 51% | 0 hPa | 0 mm | - | - | - |
| 1778239171 | -5.56° C | 50% | 0 hPa | 0 mm | - | - | - |
| 1778238871 | -6.11° C | 50% | 0 hPa | 0 mm | - | - | - |
| 1778238571 | -6.11° C | 49% | 0 hPa | 0 mm | - | - | - |
| 1778238271 | -6.11° C | 49% | 0 hPa | 0 mm | - | - | - |
| 1778237971 | -6.11° C | 51% | 0 hPa | 0 mm | - | - | - |
| 1778237671 | -6.11° C | 51% | 0 hPa | 0 mm | - | - | - |
| 1778237371 | -6.67° C | 51% | 0 hPa | 0 mm | - | - | - |
* Rain latest hour (hover to see other rain measurements)
** Current wind speed in m/s (hover to see current wind gust speed)